Time;durP1;ratioP1;P1;durP2;ratioP2;P2;SDS_P1;SDS_P2;PMS_P1;PMS_P2;Temp;Humidity;BMP_temperature;BMP_pressure;BME280_temperature;BME280_humidity;BME280_pressure;Samples;Min_cycle;Max_cycle;Signal;HPM_P1;HPM_P2
2022/07/02 00:00:46;;;;;;;;;;;;;;;;;;5082333;28;798;-64
2022/07/02 00:03:14;;;;;;;;;;;;;;;;;;5081083;28;1897;-64
2022/07/02 00:05:44;;;;;;;;;;;;;;;;;;5082018;28;976;-64
2022/07/02 00:08:10;;;;;;;;;;;;;;;;;;5080225;28;1264;-64
2022/07/02 00:10:35;;;;;;;;;;;;;;;;;;5082058;28;802;-63
2022/07/02 00:13:01;;;;;;;;;;;;;;;;;;5082178;28;814;-63
2022/07/02 00:15:26;;;;;;;;;;;;;;;;;;5081861;28;1091;-64
2022/07/02 00:17:52;;;;;;;;;;;;;;;;;;5081832;28;1251;-63
2022/07/02 00:20:17;;;;;;;;;;;;;;;;;;5081811;28;988;-64
2022/07/02 00:22:43;;;;;;;;;;;;;;;;;;5082141;28;1897;-63
2022/07/02 00:25:09;;;;;;;;;;;;;;;;;;5081410;28;953;-63
2022/07/02 00:27:35;;;;;;;;;;;;;;;;;;5081591;28;1179;-63
2022/07/02 00:30:01;;;;;;;;;;;;;;;;;;5082311;28;774;-63
2022/07/02 00:32:28;;;;;;;;;;;;;;;;;;5082132;28;842;-64
2022/07/02 00:34:54;;;;;;;;;;;;;;;;;;5081592;28;925;-64
2022/07/02 00:37:20;;;;;;;;;;;;;;;;;;5081303;28;1259;-64
2022/07/02 00:39:45;;;;;;;;;;;;;;;;;;5081919;28;815;-64
2022/07/02 00:42:11;;;;;;;;;;;;;;;;;;5081550;28;850;-64
2022/07/02 00:44:36;;;;;;;;;;;;;;;;;;5081607;28;1925;-64
2022/07/02 00:47:04;;;;;;;;;;;;;;;;;;5081068;28;1223;-64
2022/07/02 00:49:30;;;;;;;;;;;;;;;;;;5081652;28;858;-64
2022/07/02 00:51:55;;;;;;;;;;;;;;;;;;5081406;28;786;-63
2022/07/02 00:54:21;;;;;;;;;;;;;;;;;;5081619;28;854;-65
2022/07/02 00:56:46;;;;;;;;;;;;;;;;;;5080854;28;1286;-64
2022/07/02 00:59:11;;;;;;;;;;;;;;;;;;5080186;28;1159;-64
2022/07/02 01:01:36;;;;;;;;;;;;;;;;;;5081669;28;826;-64
2022/07/02 01:04:03;;;;;;;;;;;;;;;;;;5081160;28;1902;-64
2022/07/02 01:06:30;;;;;;;;;;;;;;;;;;5080954;28;1147;-63
2022/07/02 01:11:41;;;;;;;;;;;;;;;;;;5081359;28;667;-64
2022/07/02 01:14:06;;;;;;;;;;;;;;;;;;5081143;28;767;-64
2022/07/02 01:16:32;;;;;;;;;;;;;;;;;;5080888;28;1187;-64
2022/07/02 01:18:57;;;;;;;;;;;;;;;;;;5081152;28;790;-64
2022/07/02 01:21:22;;;;;;;;;;;;;;;;;;5081146;28;1033;-64
2022/07/02 01:23:47;;;;;;;;;;;;;;;;;;5081136;28;1957;-63
2022/07/02 01:26:12;;;;;;;;;;;;;;;;;;5080960;28;1187;-63
2022/07/02 01:28:37;;;;;;;;;;;;;;;;;;5080887;28;881;-64
2022/07/02 01:31:03;;;;;;;;;;;;;;;;;;5081115;28;862;-64
2022/07/02 01:33:28;;;;;;;;;;;;;;;;;;5081083;28;806;-64
2022/07/02 01:35:53;;;;;;;;;;;;;;;;;;5080743;28;917;-63
2022/07/02 01:38:18;;;;;;;;;;;;;;;;;;5080666;28;1279;-64
2022/07/02 01:40:44;;;;;;;;;;;;;;;;;;5080744;28;1023;-64
2022/07/02 01:43:09;;;;;;;;;;;;;;;;;;5079590;28;1901;-64
2022/07/02 01:45:34;;;;;;;;;;;;;;;;;;5080639;28;877;-64
2022/07/02 01:47:59;;;;;;;;;;;;;;;;;;5080519;28;1176;-64
2022/07/02 01:50:24;;;;;;;;;;;;;;;;;;5082160;28;818;-63
2022/07/02 01:52:51;;;;;;;;;;;;;;;;;;5084371;28;976;-63
2022/07/02 01:55:16;;;;;;;;;;;;;;;;;;5084133;28;806;-63
2022/07/02 01:57:41;;;;;;;;;;;;;;;;;;5084050;28;1199;-63
2022/07/02 02:00:08;;;;;;;;;;;;;;;;;;5084111;28;858;-64
2022/07/02 02:02:33;;;;;;;;;;;;;;;;;;5084086;28;1906;-63
2022/07/02 02:04:58;;;;;;;;;;;;;;;;;;5084213;28;1019;-64
2022/07/02 02:07:24;;;;;;;;;;;;;;;;;;5083198;28;1208;-64
2022/07/02 02:09:49;;;;;;;;;;;;;;;;;;5084196;28;866;-64
2022/07/02 02:12:14;;;;;;;;;;;;;;;;;;5083979;28;791;-64
2022/07/02 02:14:39;;;;;;;;;;;;;;;;;;5084164;28;988;-64
2022/07/02 02:17:05;;;;;;;;;;;;;;;;;;5083225;28;1290;-64
2022/07/02 02:19:30;;;;;;;;;;;;;;;;;;5084054;28;877;-64
2022/07/02 02:21:56;;;;;;;;;;;;;;;;;;5083668;28;787;-63
2022/07/02 02:24:21;;;;;;;;;;;;;;;;;;5084089;28;1900;-64
2022/07/02 02:26:46;;;;;;;;;;;;;;;;;;5083523;28;1297;-64
2022/07/02 02:29:11;;;;;;;;;;;;;;;;;;5084062;28;977;-64
2022/07/02 02:31:36;;;;;;;;;;;;;;;;;;5083786;28;936;-64
2022/07/02 02:34:02;;;;;;;;;;;;;;;;;;5083446;28;909;-64
2022/07/02 02:36:27;;;;;;;;;;;;;;;;;;5083240;28;1211;-64
2022/07/02 02:38:52;;;;;;;;;;;;;;;;;;5083747;28;766;-64
2022/07/02 02:41:18;;;;;;;;;;;;;;;;;;5083815;28;798;-64
2022/07/02 02:43:43;;;;;;;;;;;;;;;;;;5083521;28;1964;-64
2022/07/02 02:46:09;;;;;;;;;;;;;;;;;;5083480;28;1199;-64
2022/07/02 02:48:35;;;;;;;;;;;;;;;;;;5083144;28;881;-64
2022/07/02 02:51:00;;;;;;;;;;;;;;;;;;5083626;28;810;-64
2022/07/02 02:53:25;;;;;;;;;;;;;;;;;;5083588;28;857;-64
2022/07/02 02:55:51;;;;;;;;;;;;;;;;;;5083495;28;818;-64
2022/07/02 02:58:16;;;;;;;;;;;;;;;;;;5081769;28;1285;-64
2022/07/02 03:00:41;;;;;;;;;;;;;;;;;;5082796;28;949;-65
2022/07/02 03:03:07;;;;;;;;;;;;;;;;;;5082225;28;1949;-64
2022/07/02 03:05:32;;;;;;;;;;;;;;;;;;5083010;28;897;-64
2022/07/02 03:07:57;;;;;;;;;;;;;;;;;;5083059;28;1255;-64
2022/07/02 03:10:22;;;;;;;;;;;;;;;;;;5083003;28;976;-64
2022/07/02 03:12:47;;;;;;;;;;;;;;;;;;5083239;28;885;-64
2022/07/02 03:15:13;;;;;;;;;;;;;;;;;;5082921;28;798;-64
2022/07/02 03:17:38;;;;;;;;;;;;;;;;;;5098010;28;1429;-65
2022/07/02 03:20:04;;;;;;;;;;;;;;;;;;5103118;28;814;-64
2022/07/02 03:22:29;;;;;;;;;;;;;;;;;;5103163;28;2269;-65
2022/07/02 03:24:54;;;;;;;;;;;;;;;;;;5103579;28;782;-64
2022/07/02 03:27:20;;;;;;;;;;;;;;;;;;5101237;28;1206;-64
2022/07/02 03:29:45;;;;;;;;;;;;;;;;;;5103577;28;786;-64
2022/07/02 03:32:10;;;;;;;;;;;;;;;;;;5103008;28;814;-64
2022/07/02 03:34:36;;;;;;;;;;;;;;;;;;5103051;28;833;-64
2022/07/02 03:37:01;;;;;;;;;;;;;;;;;;5102411;28;1286;-65
2022/07/02 03:39:26;;;;;;;;;;;;;;;;;;5103084;28;865;-64
2022/07/02 03:41:51;;;;;;;;;;;;;;;;;;5102811;28;850;-64
2022/07/02 03:44:17;;;;;;;;;;;;;;;;;;5102935;28;1898;-64
2022/07/02 03:46:42;;;;;;;;;;;;;;;;;;5102082;28;1284;-64
2022/07/02 03:49:07;;;;;;;;;;;;;;;;;;5102879;28;953;-64
2022/07/02 03:51:32;;;;;;;;;;;;;;;;;;5102729;28;878;-64
2022/07/02 03:53:57;;;;;;;;;;;;;;;;;;5102878;28;798;-64
2022/07/02 03:56:22;;;;;;;;;;;;;;;;;;5102378;28;1175;-64
2022/07/02 03:58:48;;;;;;;;;;;;;;;;;;5102544;28;889;-64
2022/07/02 04:01:13;;;;;;;;;;;;;;;;;;5102641;28;790;-64
2022/07/02 04:03:38;;;;;;;;;;;;;;;;;;5102372;28;1959;-64
2022/07/02 04:06:03;;;;;;;;;;;;;;;;;;5102441;28;1199;-64
2022/07/02 04:08:29;;;;;;;;;;;;;;;;;;5102348;28;786;-64
2022/07/02 04:10:54;;;;;;;;;;;;;;;;;;5102775;28;1048;-64
2022/07/02 04:13:19;;;;;;;;;;;;;;;;;;5101851;28;921;-64
2022/07/02 04:15:44;;;;;;;;;;;;;;;;;;5102427;28;1194;-64
2022/07/02 04:18:10;;;;;;;;;;;;;;;;;;5101984;28;1258;-64
2022/07/02 04:20:35;;;;;;;;;;;;;;;;;;5102145;28;818;-64
2022/07/02 04:23:00;;;;;;;;;;;;;;;;;;5102252;28;1890;-64
2022/07/02 04:25:25;;;;;;;;;;;;;;;;;;5102068;28;873;-64
2022/07/02 04:27:51;;;;;;;;;;;;;;;;;;5101906;28;1206;-64
2022/07/02 04:30:16;;;;;;;;;;;;;;;;;;5101991;28;822;-64
2022/07/02 04:32:41;;;;;;;;;;;;;;;;;;5102242;28;803;-64
2022/07/02 04:35:06;;;;;;;;;;;;;;;;;;5101831;28;865;-63
2022/07/02 04:37:32;;;;;;;;;;;;;;;;;;5101791;28;1187;-64
2022/07/02 04:39:57;;;;;;;;;;;;;;;;;;5101888;28;865;-63
2022/07/02 04:42:22;;;;;;;;;;;;;;;;;;5102063;28;818;-64
2022/07/02 04:44:48;;;;;;;;;;;;;;;;;;5102161;28;1909;-63
2022/07/02 04:47:13;;;;;;;;;;;;;;;;;;5101352;28;1191;-64
2022/07/02 04:49:38;;;;;;;;;;;;;;;;;;5102052;28;972;-64
2022/07/02 04:52:03;;;;;;;;;;;;;;;;;;5101603;28;967;-64
2022/07/02 04:54:29;;;;;;;;;;;;;;;;;;5102191;28;840;-64
2022/07/02 04:56:54;;;;;;;;;;;;;;;;;;5101222;28;1175;-64
2022/07/02 04:59:19;;;;;;;;;;;;;;;;;;5101947;28;854;-65
2022/07/02 05:01:44;;;;;;;;;;;;;;;;;;5101591;28;937;-64
2022/07/02 05:04:10;;;;;;;;;;;;;;;;;;5101823;28;1897;-64
2022/07/02 05:06:35;;;;;;;;;;;;;;;;;;5101098;28;1281;-65
2022/07/02 05:09:00;;;;;;;;;;;;;;;;;;5083286;28;1036;-65
2022/07/02 05:11:25;;;;;;;;;;;;;;;;;;5081258;28;1035;-64
2022/07/02 05:13:50;;;;;;;;;;;;;;;;;;5081299;28;855;-64
2022/07/02 05:16:16;;;;;;;;;;;;;;;;;;5081066;28;1284;-64
2022/07/02 05:18:41;;;;;;;;;;;;;;;;;;5081028;28;778;-64
2022/07/02 05:21:07;;;;;;;;;;;;;;;;;;5081159;28;875;-64
2022/07/02 05:23:32;;;;;;;;;;;;;;;;;;5081045;28;1968;-64
2022/07/02 05:25:57;;;;;;;;;;;;;;;;;;5083688;28;802;-64
2022/07/02 05:28:23;;;;;;;;;;;;;;;;;;5084206;28;1216;-64
2022/07/02 05:30:48;;;;;;;;;;;;;;;;;;5084713;28;861;-64
2022/07/02 05:33:14;;;;;;;;;;;;;;;;;;5084609;28;794;-64
2022/07/02 05:35:39;;;;;;;;;;;;;;;;;;5084630;28;995;-64
2022/07/02 05:38:04;;;;;;;;;;;;;;;;;;5084106;28;1199;-64
2022/07/02 05:40:29;;;;;;;;;;;;;;;;;;5084529;28;909;-64
2022/07/02 05:42:55;;;;;;;;;;;;;;;;;;5084483;28;1909;-64
2022/07/02 05:45:20;;;;;;;;;;;;;;;;;;5084360;28;1000;-64
2022/07/02 05:47:45;;;;;;;;;;;;;;;;;;5084113;28;1290;-64
2022/07/02 05:50:10;;;;;;;;;;;;;;;;;;5084220;28;937;-64
2022/07/02 05:52:36;;;;;;;;;;;;;;;;;;5084694;28;900;-64
2022/07/02 05:55:01;;;;;;;;;;;;;;;;;;5084205;28;830;-64
2022/07/02 05:57:26;;;;;;;;;;;;;;;;;;5082547;28;1191;-65
2022/07/02 05:59:51;;;;;;;;;;;;;;;;;;5084081;28;877;-62
2022/07/02 06:02:17;;;;;;;;;;;;;;;;;;5084522;28;829;-62
2022/07/02 06:04:42;;;;;;;;;;;;;;;;;;5083934;28;1901;-62
2022/07/02 06:09:51;;;;;;;;;;;;;;;;;;5084314;28;633;-62
2022/07/02 06:12:16;;;;;;;;;;;;;;;;;;5084065;28;874;-62
2022/07/02 06:14:41;;;;;;;;;;;;;;;;;;5084118;28;918;-62
2022/07/02 06:17:06;;;;;;;;;;;;;;;;;;5083683;28;1172;-63
2022/07/02 06:19:32;;;;;;;;;;;;;;;;;;5083835;28;849;-62
2022/07/02 06:21:57;;;;;;;;;;;;;;;;;;5084022;28;850;-64
2022/07/02 06:24:22;;;;;;;;;;;;;;;;;;5083887;28;1901;-64
2022/07/02 06:26:47;;;;;;;;;;;;;;;;;;5083268;28;1294;-64
2022/07/02 06:29:12;;;;;;;;;;;;;;;;;;5083717;28;993;-63
2022/07/02 06:31:38;;;;;;;;;;;;;;;;;;5083544;28;984;-63
2022/07/02 06:34:03;;;;;;;;;;;;;;;;;;5083604;28;1056;-63
2022/07/02 06:36:28;;;;;;;;;;;;;;;;;;5083176;28;1303;-64
2022/07/02 06:38:54;;;;;;;;;;;;;;;;;;5083639;28;869;-64
2022/07/02 06:44:04;;;;;;;;;;;;;;;;;;5083686;28;1902;-64
2022/07/02 06:46:29;;;;;;;;;;;;;;;;;;5083189;28;1199;-64
2022/07/02 06:48:54;;;;;;;;;;;;;;;;;;5083331;28;806;-64
2022/07/02 06:51:20;;;;;;;;;;;;;;;;;;5082131;28;1770;-64
2022/07/02 06:53:45;;;;;;;;;;;;;;;;;;5083347;28;892;-64
2022/07/02 06:56:10;;;;;;;;;;;;;;;;;;5083253;28;1195;-64
2022/07/02 06:58:35;;;;;;;;;;;;;;;;;;5082920;28;984;-64
2022/07/02 07:01:01;;;;;;;;;;;;;;;;;;5083363;28;928;-64
2022/07/02 07:03:26;;;;;;;;;;;;;;;;;;5083019;28;1898;-64
2022/07/02 07:05:52;;;;;;;;;;;;;;;;;;5083313;28;996;-64
2022/07/02 07:08:17;;;;;;;;;;;;;;;;;;5082671;28;1172;-64
2022/07/02 07:10:42;;;;;;;;;;;;;;;;;;5083058;28;1032;-64
2022/07/02 07:13:07;;;;;;;;;;;;;;;;;;5083229;28;917;-63
2022/07/02 07:15:32;;;;;;;;;;;;;;;;;;5082867;28;1027;-64
2022/07/02 07:17:57;;;;;;;;;;;;;;;;;;5082921;28;1270;-64
2022/07/02 07:20:29;;;;;;;;;;;;;;;;;;5082869;28;885;-64
2022/07/02 07:22:54;;;;;;;;;;;;;;;;;;5083084;28;1962;-64
2022/07/02 07:25:19;;;;;;;;;;;;;;;;;;5082719;28;924;-64
2022/07/02 07:27:45;;;;;;;;;;;;;;;;;;5082639;28;1254;-64
2022/07/02 07:30:10;;;;;;;;;;;;;;;;;;5082809;28;810;-64
2022/07/02 07:32:36;;;;;;;;;;;;;;;;;;5082886;28;997;-63
2022/07/02 07:35:01;;;;;;;;;;;;;;;;;;5082560;28;813;-63
2022/07/02 07:37:26;;;;;;;;;;;;;;;;;;5082472;28;1275;-64
2022/07/02 07:39:51;;;;;;;;;;;;;;;;;;5082650;28;873;-64
2022/07/02 07:42:16;;;;;;;;;;;;;;;;;;5082571;28;857;-64
2022/07/02 07:44:41;;;;;;;;;;;;;;;;;;5082592;28;1902;-63
2022/07/02 07:47:07;;;;;;;;;;;;;;;;;;5081735;28;1302;-64
2022/07/02 07:49:32;;;;;;;;;;;;;;;;;;5082053;28;894;-63
2022/07/02 07:51:57;;;;;;;;;;;;;;;;;;5082404;28;924;-64
2022/07/02 07:54:22;;;;;;;;;;;;;;;;;;5082529;28;893;-64
2022/07/02 07:56:47;;;;;;;;;;;;;;;;;;5082037;28;1195;-63
2022/07/02 07:59:13;;;;;;;;;;;;;;;;;;5082718;28;818;-63
2022/07/02 08:01:38;;;;;;;;;;;;;;;;;;5082278;28;842;-63
2022/07/02 08:04:03;;;;;;;;;;;;;;;;;;5082259;28;1882;-64
2022/07/02 08:06:28;;;;;;;;;;;;;;;;;;5082174;28;1299;-63
2022/07/02 08:08:53;;;;;;;;;;;;;;;;;;5082262;28;806;-63
2022/07/02 08:11:19;;;;;;;;;;;;;;;;;;5082194;28;803;-63
2022/07/02 08:13:44;;;;;;;;;;;;;;;;;;5082055;28;861;-63
2022/07/02 08:16:09;;;;;;;;;;;;;;;;;;5081894;28;1271;-63
2022/07/02 08:18:34;;;;;;;;;;;;;;;;;;5081720;28;814;-63
2022/07/02 08:21:00;;;;;;;;;;;;;;;;;;5082014;28;937;-63
2022/07/02 08:23:26;;;;;;;;;;;;;;;;;;5081744;28;1905;-62
2022/07/02 08:25:53;;;;;;;;;;;;;;;;;;5082161;28;755;-63
2022/07/02 08:28:18;;;;;;;;;;;;;;;;;;5081460;28;1158;-63
2022/07/02 08:30:43;;;;;;;;;;;;;;;;;;5081569;28;774;-63
2022/07/02 08:33:09;;;;;;;;;;;;;;;;;;5081745;28;878;-63
2022/07/02 08:35:34;;;;;;;;;;;;;;;;;;5081701;28;881;-63
2022/07/02 08:37:59;;;;;;;;;;;;;;;;;;5081591;28;1192;-63
2022/07/02 08:40:26;;;;;;;;;;;;;;;;;;5081410;28;882;-63
2022/07/02 08:42:53;;;;;;;;;;;;;;;;;;5081802;28;1965;-63
2022/07/02 08:45:20;;;;;;;;;;;;;;;;;;5081688;28;786;-63
2022/07/02 08:47:46;;;;;;;;;;;;;;;;;;5081486;28;1120;-63
2022/07/02 08:50:11;;;;;;;;;;;;;;;;;;5081370;28;1000;-63
2022/07/02 08:52:38;;;;;;;;;;;;;;;;;;5081612;28;873;-62
2022/07/02 08:55:03;;;;;;;;;;;;;;;;;;5081405;28;857;-63
2022/07/02 08:57:50;;;;;;;;;;;;;;;;;;5081194;28;1266;-63
2022/07/02 09:00:16;;;;;;;;;;;;;;;;;;5081160;28;909;-63
2022/07/02 09:02:42;;;;;;;;;;;;;;;;;;5081432;28;1886;-62
2022/07/02 09:05:08;;;;;;;;;;;;;;;;;;5081446;28;1039;-62
2022/07/02 09:07:34;;;;;;;;;;;;;;;;;;5079875;28;1436;-63
2022/07/02 09:10:01;;;;;;;;;;;;;;;;;;5081170;28;1028;-63
2022/07/02 09:12:26;;;;;;;;;;;;;;;;;;5081059;28;1047;-63
2022/07/02 09:14:52;;;;;;;;;;;;;;;;;;5081418;28;921;-63
2022/07/02 09:17:17;;;;;;;;;;;;;;;;;;5080931;28;1278;-63
2022/07/02 09:19:42;;;;;;;;;;;;;;;;;;5081184;28;830;-62
2022/07/02 09:22:08;;;;;;;;;;;;;;;;;;5080949;28;976;-62
2022/07/02 09:24:37;;;;;;;;;;;;;;;;;;5081166;28;1902;-63
2022/07/02 09:27:04;;;;;;;;;;;;;;;;;;5080536;28;1195;-62
2022/07/02 09:29:39;;;;;;;;;;;;;;;;;;5080971;28;1351;-64
2022/07/02 09:32:05;;;;;;;;;;;;;;;;;;5080981;28;810;-63
2022/07/02 09:34:30;;;;;;;;;;;;;;;;;;5080959;28;882;-62
2022/07/02 09:36:55;;;;;;;;;;;;;;;;;;5080549;28;1227;-62
2022/07/02 09:39:30;;;;;;;;;;;;;;;;;;5080767;28;897;-63
2022/07/02 09:41:55;;;;;;;;;;;;;;;;;;5080994;28;821;-63
2022/07/02 09:44:21;;;;;;;;;;;;;;;;;;5080763;28;1902;-62
2022/07/02 09:46:46;;;;;;;;;;;;;;;;;;5080618;28;1328;-63
2022/07/02 09:49:12;;;;;;;;;;;;;;;;;;5080780;28;838;-63
2022/07/02 09:51:53;;;;;;;;;;;;;;;;;;5081039;28;818;-63
2022/07/02 09:54:22;;;;;;;;;;;;;;;;;;5080741;28;1043;-63
2022/07/02 09:56:54;;;;;;;;;;;;;;;;;;5080498;28;1294;-63
2022/07/02 09:59:20;;;;;;;;;;;;;;;;;;5080650;28;838;-63
2022/07/02 10:01:45;;;;;;;;;;;;;;;;;;5079483;28;1136;-63
2022/07/02 10:04:11;;;;;;;;;;;;;;;;;;5080739;28;1898;-63
2022/07/02 10:06:37;;;;;;;;;;;;;;;;;;5080285;28;1215;-63
2022/07/02 10:09:02;;;;;;;;;;;;;;;;;;5080523;28;985;-63
2022/07/02 10:11:28;;;;;;;;;;;;;;;;;;5082026;28;1032;-63
2022/07/02 10:13:54;;;;;;;;;;;;;;;;;;5084039;28;1056;-62
2022/07/02 10:16:20;;;;;;;;;;;;;;;;;;5083887;28;1156;-63
2022/07/02 10:18:45;;;;;;;;;;;;;;;;;;5084062;28;1032;-63
2022/07/02 10:21:11;;;;;;;;;;;;;;;;;;5083550;28;869;-64
2022/07/02 10:23:37;;;;;;;;;;;;;;;;;;5084014;28;1898;-63
2022/07/02 10:26:02;;;;;;;;;;;;;;;;;;5083605;28;1386;-63
2022/07/02 10:28:28;;;;;;;;;;;;;;;;;;5083693;28;1047;-63
2022/07/02 10:30:56;;;;;;;;;;;;;;;;;;5083343;28;944;-63
2022/07/02 10:33:28;;;;;;;;;;;;;;;;;;5084096;28;798;-63
2022/07/02 10:35:53;;;;;;;;;;;;;;;;;;5083445;28;841;-63
2022/07/02 10:38:28;;;;;;;;;;;;;;;;;;5083481;28;1176;-64
2022/07/02 10:40:54;;;;;;;;;;;;;;;;;;5083452;28;798;-64
2022/07/02 10:43:19;;;;;;;;;;;;;;;;;;5083689;28;1898;-63
2022/07/02 10:45:45;;;;;;;;;;;;;;;;;;5083632;28;842;-63
2022/07/02 10:48:11;;;;;;;;;;;;;;;;;;5083029;28;1140;-64
2022/07/02 10:50:37;;;;;;;;;;;;;;;;;;5083398;28;952;-63
2022/07/02 10:53:10;;;;;;;;;;;;;;;;;;5083318;28;817;-63
2022/07/02 10:55:35;;;;;;;;;;;;;;;;;;5083517;28;838;-63
2022/07/02 10:58:05;;;;;;;;;;;;;;;;;;5082995;28;1281;-63
2022/07/02 11:00:38;;;;;;;;;;;;;;;;;;5083616;28;790;-63
2022/07/02 11:03:12;;;;;;;;;;;;;;;;;;5083085;28;1964;-63
2022/07/02 11:06:09;;;;;;;;;;;;;;;;;;5083264;28;874;-63
2022/07/02 11:08:37;;;;;;;;;;;;;;;;;;5059738;28;1243;-63
2022/07/02 11:11:02;;;;;;;;;;;;;;;;;;5081788;28;858;-63
2022/07/02 11:13:34;;;;;;;;;;;;;;;;;;5083013;28;853;-63
2022/07/02 11:16:00;;;;;;;;;;;;;;;;;;5083035;28;1136;-64
2022/07/02 11:18:28;;;;;;;;;;;;;;;;;;5082730;28;1075;-64
2022/07/02 11:20:53;;;;;;;;;;;;;;;;;;5081683;28;953;-63
2022/07/02 11:23:19;;;;;;;;;;;;;;;;;;5081750;28;1897;-63
2022/07/02 11:25:44;;;;;;;;;;;;;;;;;;5082910;28;969;-63
2022/07/02 11:28:12;;;;;;;;;;;;;;;;;;5082740;28;1160;-64
2022/07/02 11:30:37;;;;;;;;;;;;;;;;;;5082772;28;835;-63
2022/07/02 11:33:11;;;;;;;;;;;;;;;;;;5082886;28;1032;-63
2022/07/02 11:35:36;;;;;;;;;;;;;;;;;;5082534;28;1038;-63
2022/07/02 11:38:02;;;;;;;;;;;;;;;;;;5082505;28;1168;-63
2022/07/02 11:40:27;;;;;;;;;;;;;;;;;;5082689;28;794;-63
2022/07/02 11:42:52;;;;;;;;;;;;;;;;;;5082715;28;1906;-63
2022/07/02 11:45:18;;;;;;;;;;;;;;;;;;5082439;28;1226;-63
2022/07/02 11:47:43;;;;;;;;;;;;;;;;;;5082563;28;1259;-63
2022/07/02 11:50:10;;;;;;;;;;;;;;;;;;5082289;28;1131;-63
2022/07/02 11:52:35;;;;;;;;;;;;;;;;;;5081130;28;1497;-63
2022/07/02 11:55:04;;;;;;;;;;;;;;;;;;5082305;28;877;-63
2022/07/02 11:57:32;;;;;;;;;;;;;;;;;;5082277;28;1262;-63
2022/07/02 11:59:58;;;;;;;;;;;;;;;;;;5082555;28;799;-63
2022/07/02 12:02:23;;;;;;;;;;;;;;;;;;5082045;28;993;-63
2022/07/02 12:04:48;;;;;;;;;;;;;;;;;;5082315;28;1910;-63
2022/07/02 12:07:13;;;;;;;;;;;;;;;;;;5081981;28;1267;-62
2022/07/02 12:09:39;;;;;;;;;;;;;;;;;;5082562;28;861;-62
2022/07/02 12:12:04;;;;;;;;;;;;;;;;;;5081993;28;810;-62
2022/07/02 12:14:30;;;;;;;;;;;;;;;;;;5082261;28;933;-62
2022/07/02 12:16:56;;;;;;;;;;;;;;;;;;5081639;28;1351;-63
2022/07/02 12:19:27;;;;;;;;;;;;;;;;;;5082197;28;889;-63
2022/07/02 12:21:53;;;;;;;;;;;;;;;;;;5081891;28;886;-63
2022/07/02 12:24:21;;;;;;;;;;;;;;;;;;5082053;28;1890;-63
2022/07/02 12:26:51;;;;;;;;;;;;;;;;;;5081604;28;1251;-63
2022/07/02 12:32:07;;;;;;;;;;;;;;;;;;5082234;28;608;-62
2022/07/02 12:34:36;;;;;;;;;;;;;;;;;;5081398;28;785;-63
2022/07/02 12:37:02;;;;;;;;;;;;;;;;;;5081601;28;1278;-63
2022/07/02 12:39:40;;;;;;;;;;;;;;;;;;5081731;28;1027;-63
2022/07/02 12:42:16;;;;;;;;;;;;;;;;;;5081886;28;826;-64
2022/07/02 12:44:52;;;;;;;;;;;;;;;;;;5081509;28;1975;-63
2022/07/02 12:47:23;;;;;;;;;;;;;;;;;;5081418;28;1179;-64
2022/07/02 12:49:55;;;;;;;;;;;;;;;;;;5081466;28;846;-64
2022/07/02 12:52:21;;;;;;;;;;;;;;;;;;5081608;28;921;-64
2022/07/02 12:54:46;;;;;;;;;;;;;;;;;;5081475;28;1066;-64
2022/07/02 12:57:18;;;;;;;;;;;;;;;;;;5081406;28;1251;-64
2022/07/02 12:59:44;;;;;;;;;;;;;;;;;;5081417;28;902;-64
2022/07/02 13:02:13;;;;;;;;;;;;;;;;;;5081544;28;972;-64
2022/07/02 13:04:38;;;;;;;;;;;;;;;;;;5081171;28;1894;-64
2022/07/02 13:07:03;;;;;;;;;;;;;;;;;;5081277;28;1187;-64
2022/07/02 13:09:28;;;;;;;;;;;;;;;;;;5081215;28;996;-64
2022/07/02 13:11:54;;;;;;;;;;;;;;;;;;5081347;28;917;-64
2022/07/02 13:14:19;;;;;;;;;;;;;;;;;;5081225;28;854;-64
2022/07/02 13:16:44;;;;;;;;;;;;;;;;;;5081017;28;1295;-64
2022/07/02 13:19:09;;;;;;;;;;;;;;;;;;5081329;28;886;-64
2022/07/02 13:21:34;;;;;;;;;;;;;;;;;;5081069;28;856;-63
2022/07/02 13:24:00;;;;;;;;;;;;;;;;;;5081130;28;1957;-63
2022/07/02 13:26:25;;;;;;;;;;;;;;;;;;5080741;28;1223;-63
2022/07/02 13:28:50;;;;;;;;;;;;;;;;;;5081207;28;928;-63
2022/07/02 13:31:16;;;;;;;;;;;;;;;;;;5081169;28;873;-63
2022/07/02 13:33:41;;;;;;;;;;;;;;;;;;5080975;28;904;-63
2022/07/02 13:36:06;;;;;;;;;;;;;;;;;;5080867;28;1314;-63
2022/07/02 13:38:31;;;;;;;;;;;;;;;;;;5080982;28;794;-63
2022/07/02 13:40:57;;;;;;;;;;;;;;;;;;5080839;28;968;-63
2022/07/02 13:43:22;;;;;;;;;;;;;;;;;;5079400;28;1975;-63
2022/07/02 13:45:47;;;;;;;;;;;;;;;;;;5081731;28;783;-63
2022/07/02 13:48:12;;;;;;;;;;;;;;;;;;5083962;28;1180;-63
2022/07/02 13:50:46;;;;;;;;;;;;;;;;;;5084491;28;862;-63
2022/07/02 13:53:12;;;;;;;;;;;;;;;;;;5087379;28;1040;-63
2022/07/02 13:55:37;;;;;;;;;;;;;;;;;;5104635;28;795;-63
2022/07/02 13:58:03;;;;;;;;;;;;;;;;;;5104382;28;1353;-63
2022/07/02 14:00:28;;;;;;;;;;;;;;;;;;5104628;28;1027;-63
2022/07/02 14:02:53;;;;;;;;;;;;;;;;;;5102950;28;1894;-64
2022/07/02 14:05:18;;;;;;;;;;;;;;;;;;5103156;28;1600;-63
2022/07/02 14:07:43;;;;;;;;;;;;;;;;;;5103997;28;1199;-63
2022/07/02 14:10:09;;;;;;;;;;;;;;;;;;5104397;28;968;-63
2022/07/02 14:12:34;;;;;;;;;;;;;;;;;;5103183;28;920;-63
2022/07/02 14:14:59;;;;;;;;;;;;;;;;;;5104407;28;797;-63
2022/07/02 14:17:24;;;;;;;;;;;;;;;;;;5104298;28;1187;-63
2022/07/02 14:19:51;;;;;;;;;;;;;;;;;;5104825;28;817;-63
2022/07/02 14:22:19;;;;;;;;;;;;;;;;;;5104291;28;781;-63
2022/07/02 14:24:44;;;;;;;;;;;;;;;;;;5104258;28;1910;-63
2022/07/02 14:27:09;;;;;;;;;;;;;;;;;;5103891;28;1191;-63
2022/07/02 14:29:34;;;;;;;;;;;;;;;;;;5104053;28;881;-63
2022/07/02 14:31:59;;;;;;;;;;;;;;;;;;5104301;28;975;-63
2022/07/02 14:34:25;;;;;;;;;;;;;;;;;;5103686;28;903;-63
2022/07/02 14:36:50;;;;;;;;;;;;;;;;;;5103750;28;1139;-63
2022/07/02 14:39:16;;;;;;;;;;;;;;;;;;5104132;28;854;-63
2022/07/02 14:41:42;;;;;;;;;;;;;;;;;;5103782;28;845;-63
2022/07/02 14:44:08;;;;;;;;;;;;;;;;;;5103889;28;1897;-62
2022/07/02 14:46:33;;;;;;;;;;;;;;;;;;5103503;28;1275;-63
2022/07/02 14:48:59;;;;;;;;;;;;;;;;;;5103887;28;786;-63
2022/07/02 14:51:24;;;;;;;;;;;;;;;;;;5103850;28;936;-63
2022/07/02 14:53:49;;;;;;;;;;;;;;;;;;5103787;28;830;-63
2022/07/02 14:56:15;;;;;;;;;;;;;;;;;;5103237;28;1156;-63
2022/07/02 14:58:40;;;;;;;;;;;;;;;;;;5103553;28;837;-62
2022/07/02 15:01:05;;;;;;;;;;;;;;;;;;5103390;28;897;-62
2022/07/02 15:03:30;;;;;;;;;;;;;;;;;;5103523;28;1959;-62
2022/07/02 15:05:56;;;;;;;;;;;;;;;;;;5103738;28;981;-63
2022/07/02 15:08:21;;;;;;;;;;;;;;;;;;5103266;28;1211;-63
2022/07/02 15:10:46;;;;;;;;;;;;;;;;;;5103508;28;791;-63
2022/07/02 15:13:11;;;;;;;;;;;;;;;;;;5103226;28;1176;-63
2022/07/02 15:18:20;;;;;;;;;;;;;;;;;;5103009;28;1215;-63
2022/07/02 15:20:48;;;;;;;;;;;;;;;;;;5103396;28;845;-63
2022/07/02 15:23:19;;;;;;;;;;;;;;;;;;5103009;28;1894;-64
2022/07/02 15:25:44;;;;;;;;;;;;;;;;;;5103192;28;806;-62
2022/07/02 15:28:13;;;;;;;;;;;;;;;;;;5102938;28;1183;-62
2022/07/02 15:30:38;;;;;;;;;;;;;;;;;;5103184;28;1004;-63
2022/07/02 15:33:03;;;;;;;;;;;;;;;;;;5103018;28;944;-62
2022/07/02 15:35:29;;;;;;;;;;;;;;;;;;5102928;28;1052;-62
2022/07/02 15:37:55;;;;;;;;;;;;;;;;;;5102571;28;1179;-62
2022/07/02 15:40:21;;;;;;;;;;;;;;;;;;5103312;28;880;-62
2022/07/02 15:42:47;;;;;;;;;;;;;;;;;;5103256;28;945;-62
2022/07/02 15:45:14;;;;;;;;;;;;;;;;;;5102555;28;1972;-62
2022/07/02 15:47:40;;;;;;;;;;;;;;;;;;5102695;28;1199;-62
2022/07/02 15:50:05;;;;;;;;;;;;;;;;;;5102687;28;878;-63
2022/07/02 15:52:42;;;;;;;;;;;;;;;;;;5102782;28;976;-63
2022/07/02 15:55:12;;;;;;;;;;;;;;;;;;5101224;28;949;-63
2022/07/02 15:57:39;;;;;;;;;;;;;;;;;;5102467;28;1203;-63
2022/07/02 16:00:05;;;;;;;;;;;;;;;;;;5102575;28;829;-63
2022/07/02 16:02:30;;;;;;;;;;;;;;;;;;5102722;28;1131;-63
2022/07/02 16:04:56;;;;;;;;;;;;;;;;;;5100716;28;1901;-63
2022/07/02 16:07:22;;;;;;;;;;;;;;;;;;5102233;28;1246;-63
2022/07/02 16:09:47;;;;;;;;;;;;;;;;;;5101835;28;1048;-63
2022/07/02 16:12:13;;;;;;;;;;;;;;;;;;5102563;28;869;-63
2022/07/02 16:14:40;;;;;;;;;;;;;;;;;;5102527;28;825;-63
2022/07/02 16:17:05;;;;;;;;;;;;;;;;;;5101911;28;1184;-63
2022/07/02 16:19:31;;;;;;;;;;;;;;;;;;5102396;28;1031;-64
2022/07/02 16:21:56;;;;;;;;;;;;;;;;;;5102187;28;818;-63
2022/07/02 16:24:22;;;;;;;;;;;;;;;;;;5102262;28;1971;-63
2022/07/02 16:26:48;;;;;;;;;;;;;;;;;;5101897;28;1255;-63
2022/07/02 16:29:14;;;;;;;;;;;;;;;;;;5101373;28;829;-63
2022/07/02 16:31:43;;;;;;;;;;;;;;;;;;5102052;28;936;-63
2022/07/02 16:34:12;;;;;;;;;;;;;;;;;;5102058;28;933;-64
2022/07/02 16:36:38;;;;;;;;;;;;;;;;;;5101666;28;1318;-64
2022/07/02 16:39:03;;;;;;;;;;;;;;;;;;5102249;28;865;-63
2022/07/02 16:41:30;;;;;;;;;;;;;;;;;;5102113;28;822;-63
2022/07/02 16:43:56;;;;;;;;;;;;;;;;;;5101892;28;1905;-63
2022/07/02 16:46:22;;;;;;;;;;;;;;;;;;5101552;28;1211;-63
2022/07/02 16:48:48;;;;;;;;;;;;;;;;;;5101884;28;1001;-64
2022/07/02 16:51:16;;;;;;;;;;;;;;;;;;5102249;28;786;-63
2022/07/02 16:53:41;;;;;;;;;;;;;;;;;;5102254;28;877;-63
2022/07/02 16:56:10;;;;;;;;;;;;;;;;;;5101858;28;1262;-64
2022/07/02 16:58:35;;;;;;;;;;;;;;;;;;5101785;28;838;-63
2022/07/02 17:01:03;;;;;;;;;;;;;;;;;;5101918;28;1039;-64
2022/07/02 17:03:28;;;;;;;;;;;;;;;;;;5101520;28;1954;-64
2022/07/02 17:05:54;;;;;;;;;;;;;;;;;;5100332;28;1269;-64
2022/07/02 17:08:19;;;;;;;;;;;;;;;;;;5101424;28;1239;-64
2022/07/02 17:13:28;;;;;;;;;;;;;;;;;;5101449;28;781;-63
2022/07/02 17:15:53;;;;;;;;;;;;;;;;;;5101583;28;861;-63
2022/07/02 17:18:19;;;;;;;;;;;;;;;;;;5101384;28;1147;-64
2022/07/02 17:20:44;;;;;;;;;;;;;;;;;;5100344;28;881;-63